Time;durP1;ratioP1;P1;durP2;ratioP2;P2;SDS_P1;SDS_P2;PMS_P1;PMS_P2;Temp;Humidity;BMP_temperature;BMP_pressure;BME280_temperature;BME280_humidity;BME280_pressure;Samples;Min_cycle;Max_cycle;Signal;HPM_P1;HPM_P2
2024/03/04 00:00:46;;;;;;;29.98;16.52;;;8.40;99.90;;;;;;4975752;28;20034;-84
2024/03/04 00:03:12;;;;;;;28.40;17.23;;;8.40;99.90;;;;;;4965077;28;20086;-85
2024/03/04 00:05:39;;;;;;;31.30;17.33;;;8.40;99.90;;;;;;4980112;28;20078;-85
2024/03/04 00:08:04;;;;;;;31.70;16.42;;;8.30;99.90;;;;;;4972486;28;20383;-85
2024/03/04 00:10:30;;;;;;;31.23;16.80;;;8.30;99.90;;;;;;4969867;28;20084;-85
2024/03/04 00:12:56;;;;;;;35.75;18.58;;;8.20;99.90;;;;;;4976595;28;20026;-84
2024/03/04 00:15:25;;;;;;;31.17;17.45;;;8.20;99.90;;;;;;4970624;28;20541;-85
2024/03/04 00:17:51;;;;;;;31.98;16.48;;;8.20;99.90;;;;;;4970821;28;20038;-85
2024/03/04 00:20:20;;;;;;;29.70;16.50;;;8.20;99.90;;;;;;4976053;28;20771;-85
2024/03/04 00:22:47;;;;;;;34.53;16.05;;;8.10;99.90;;;;;;4975807;28;20631;-85
2024/03/04 00:25:16;;;;;;;31.00;15.02;;;8.20;99.90;;;;;;4971107;28;20026;-84
2024/03/04 00:27:48;;;;;;;30.13;15.20;;;8.20;99.90;;;;;;4968082;28;20023;-84
2024/03/04 00:30:14;;;;;;;24.33;12.88;;;8.20;99.90;;;;;;4987084;28;20026;-84
2024/03/04 00:32:39;;;;;;;22.70;12.05;;;8.20;99.90;;;;;;4994407;28;20475;-83
2024/03/04 00:35:06;;;;;;;27.55;13.60;;;8.20;99.90;;;;;;4992141;28;20038;-84
2024/03/04 00:37:32;;;;;;;28.70;14.73;;;8.20;99.90;;;;;;4968433;28;20502;-84
2024/03/04 00:39:58;;;;;;;27.33;12.75;;;8.20;99.90;;;;;;4976254;28;20414;-83
2024/03/04 00:42:25;;;;;;;22.60;12.73;;;8.20;99.90;;;;;;4987007;28;20022;-83
2024/03/04 00:44:51;;;;;;;34.00;15.00;;;8.20;99.90;;;;;;4984677;28;20034;-83
2024/03/04 00:47:17;;;;;;;28.95;13.35;;;8.20;99.90;;;;;;4972075;28;20034;-84
2024/03/04 00:49:45;;;;;;;29.05;14.18;;;8.20;99.90;;;;;;4970931;28;20033;-84
2024/03/04 00:52:12;;;;;;;26.60;13.45;;;8.20;99.90;;;;;;4975076;28;20490;-84
2024/03/04 00:54:37;;;;;;;24.75;12.55;;;8.10;99.90;;;;;;4978359;28;20053;-84
2024/03/04 00:57:04;;;;;;;25.58;13.23;;;8.20;99.90;;;;;;4973222;28;20074;-84
2024/03/04 00:59:30;;;;;;;26.02;12.55;;;8.20;99.90;;;;;;4974940;28;20413;-84
2024/03/04 01:01:57;;;;;;;22.90;11.70;;;8.10;99.90;;;;;;4977096;28;20117;-85
2024/03/04 01:04:22;;;;;;;25.92;10.90;;;8.10;99.90;;;;;;4985540;28;20130;-83
2024/03/04 01:06:52;;;;;;;27.17;11.55;;;8.10;99.90;;;;;;4969779;28;20145;-83
2024/03/04 01:09:20;;;;;;;24.92;10.85;;;8.10;99.90;;;;;;4958239;28;20109;-84
2024/03/04 01:11:46;;;;;;;21.63;11.05;;;8.10;99.90;;;;;;4969645;28;20045;-84
2024/03/04 01:14:12;;;;;;;19.85;10.38;;;8.10;99.90;;;;;;4984148;28;20035;-84
2024/03/04 01:16:41;;;;;;;17.15;9.15;;;8.10;99.90;;;;;;4971711;28;20038;-84
2024/03/04 01:19:07;;;;;;;22.77;10.77;;;8.10;99.90;;;;;;4978936;28;20487;-84
2024/03/04 01:21:32;;;;;;;21.58;9.77;;;8.10;99.90;;;;;;4975213;28;20038;-84
2024/03/04 01:23:58;;;;;;;19.30;9.18;;;8.10;99.90;;;;;;4991212;28;20026;-84
2024/03/04 01:26:23;;;;;;;20.20;9.95;;;8.10;99.90;;;;;;4971874;28;20046;-84
2024/03/04 01:28:49;;;;;;;21.00;8.80;;;8.10;99.90;;;;;;4966978;28;20022;-84
2024/03/04 01:31:18;;;;;;;19.77;9.57;;;8.10;99.90;;;;;;4974223;28;20053;-84
2024/03/04 01:33:46;;;;;;;16.83;8.32;;;8.10;99.90;;;;;;4966849;28;20475;-85
2024/03/04 01:36:12;;;;;;;20.52;8.90;;;8.10;99.90;;;;;;4984001;28;20062;-84
2024/03/04 01:38:38;;;;;;;21.35;7.78;;;8.10;99.90;;;;;;4967316;28;20065;-84
2024/03/04 01:41:04;;;;;;;21.92;8.88;;;8.20;99.90;;;;;;4958437;28;20054;-84
2024/03/04 01:43:29;;;;;;;16.88;7.50;;;8.10;99.90;;;;;;4980169;28;20438;-84
2024/03/04 01:45:55;;;;;;;20.10;8.18;;;8.20;99.90;;;;;;4986571;28;20022;-85
2024/03/04 01:48:22;;;;;;;15.68;7.03;;;8.20;99.90;;;;;;4975249;28;20118;-84
2024/03/04 01:50:50;;;;;;;21.75;8.45;;;8.20;99.90;;;;;;4975400;28;20022;-84
2024/03/04 01:53:18;;;;;;;18.38;7.60;;;8.20;99.90;;;;;;4974548;28;20026;-84
2024/03/04 01:55:53;;;;;;;19.75;8.02;;;8.20;99.90;;;;;;4988442;28;20042;-85
2024/03/04 01:58:20;;;;;;;17.45;7.07;;;8.20;99.90;;;;;;4988465;28;20057;-83
2024/03/04 02:00:48;;;;;;;14.00;6.55;;;8.20;99.90;;;;;;4988231;28;20038;-84
2024/03/04 02:03:16;;;;;;;13.77;6.45;;;8.20;99.90;;;;;;4973951;28;20030;-84
2024/03/04 02:05:44;;;;;;;15.68;5.95;;;8.20;99.90;;;;;;4969744;28;20034;-84
2024/03/04 02:08:14;;;;;;;13.23;5.32;;;8.30;99.90;;;;;;4965047;28;20050;-85
2024/03/04 02:10:40;;;;;;;12.05;5.18;;;8.20;99.90;;;;;;4988704;28;20669;-85
2024/03/04 02:13:07;;;;;;;11.05;5.30;;;8.20;99.90;;;;;;4974126;28;20030;-86
2024/03/04 02:15:36;;;;;;;13.50;5.10;;;8.20;99.90;;;;;;4991104;28;20035;-85
2024/03/04 02:18:05;;;;;;;12.32;5.10;;;8.20;99.90;;;;;;4972601;28;20030;-85
2024/03/04 02:20:36;;;;;;;11.77;5.05;;;8.20;99.90;;;;;;4973637;28;20399;-86
2024/03/04 02:23:03;;;;;;;12.70;5.57;;;8.20;99.90;;;;;;4989217;28;20498;-86
2024/03/04 02:25:56;;;;;;;13.70;4.70;;;8.20;99.90;;;;;;4966750;28;20026;-86
2024/03/04 02:28:23;;;;;;;11.38;4.80;;;8.20;99.90;;;;;;4972895;28;20039;-86
2024/03/04 02:30:50;;;;;;;9.73;3.92;;;8.20;99.90;;;;;;4970489;28;20077;-85
2024/03/04 02:33:22;;;;;;;11.55;4.40;;;8.20;99.90;;;;;;4975203;28;20034;-85
2024/03/04 02:35:51;;;;;;;11.93;4.10;;;8.10;99.90;;;;;;4976835;28;20120;-85
2024/03/04 02:38:18;;;;;;;12.45;4.95;;;8.20;99.90;;;;;;4978503;28;20045;-85
2024/03/04 02:40:44;;;;;;;13.48;5.28;;;8.20;99.90;;;;;;4979386;28;20069;-85
2024/03/04 02:43:11;;;;;;;9.95;4.05;;;8.20;99.90;;;;;;4977574;28;20030;-86
2024/03/04 02:45:38;;;;;;;14.50;4.45;;;8.20;99.90;;;;;;4977592;28;20027;-86
2024/03/04 02:48:05;;;;;;;12.80;4.30;;;8.20;99.90;;;;;;4975712;28;20030;-84
2024/03/04 02:50:33;;;;;;;12.55;4.63;;;8.20;99.90;;;;;;4974720;28;20026;-85
2024/03/04 02:52:59;;;;;;;14.55;4.75;;;8.20;99.90;;;;;;4967700;28;20494;-85
2024/03/04 02:55:24;;;;;;;12.32;4.65;;;8.20;99.90;;;;;;4975457;28;20085;-86
2024/03/04 02:57:50;;;;;;;9.90;4.15;;;8.20;99.90;;;;;;4974668;28;20027;-85
2024/03/04 03:00:16;;;;;;;10.20;5.05;;;8.20;99.90;;;;;;4984591;28;20053;-85
2024/03/04 03:02:42;;;;;;;10.52;4.70;;;8.20;99.90;;;;;;4985707;28;20033;-86
2024/03/04 03:05:08;;;;;;;10.70;4.50;;;8.20;99.90;;;;;;4976399;28;20030;-86
2024/03/04 03:07:34;;;;;;;10.60;4.60;;;8.20;99.90;;;;;;4976895;28;20066;-85
2024/03/04 03:10:02;;;;;;;12.65;4.57;;;8.20;99.90;;;;;;4978445;28;20030;-85
2024/03/04 03:12:27;;;;;;;14.10;4.68;;;8.20;99.90;;;;;;4970562;28;20028;-85
2024/03/04 03:14:54;;;;;;;12.10;4.93;;;8.20;99.90;;;;;;4970614;28;20041;-85
2024/03/04 03:17:20;;;;;;;10.88;5.50;;;8.20;99.90;;;;;;4975902;28;20034;-86
2024/03/04 03:19:46;;;;;;;11.27;5.32;;;8.20;99.90;;;;;;4977866;28;20106;-86
2024/03/04 03:22:11;;;;;;;14.38;5.03;;;8.10;99.90;;;;;;4977374;28;20173;-86
2024/03/04 03:24:37;;;;;;;10.55;5.07;;;8.20;99.90;;;;;;4976891;28;20399;-86
2024/03/04 03:27:03;;;;;;;14.52;4.68;;;8.20;99.90;;;;;;4973425;28;20078;-85
2024/03/04 03:29:28;;;;;;;13.55;5.00;;;8.20;99.90;;;;;;4975187;28;20029;-84
2024/03/04 03:31:54;;;;;;;13.07;5.70;;;8.20;99.90;;;;;;4989469;28;20417;-85
2024/03/04 03:34:20;;;;;;;9.15;4.60;;;8.10;99.90;;;;;;4973558;28;20026;-86
2024/03/04 03:36:46;;;;;;;11.73;5.65;;;8.20;99.90;;;;;;4964225;28;20035;-85
2024/03/04 03:39:12;;;;;;;13.95;5.43;;;8.10;99.90;;;;;;4974379;28;20026;-86
2024/03/04 03:41:39;;;;;;;14.43;6.22;;;8.20;99.90;;;;;;4976734;28;20050;-86
2024/03/04 03:44:05;;;;;;;15.25;6.28;;;8.10;99.90;;;;;;4975981;28;20058;-87
2024/03/04 03:46:31;;;;;;;14.23;6.38;;;8.10;99.90;;;;;;4977203;28;20141;-87
2024/03/04 03:48:57;;;;;;;17.13;7.13;;;8.10;99.90;;;;;;4974085;28;20118;-85
2024/03/04 03:51:23;;;;;;;18.42;6.95;;;8.10;99.90;;;;;;4977189;28;20493;-85
2024/03/04 03:53:49;;;;;;;14.65;6.70;;;8.20;99.90;;;;;;4973482;28;20076;-85
2024/03/04 03:56:15;;;;;;;14.73;6.65;;;8.20;99.90;;;;;;4975289;28;20034;-85
2024/03/04 03:58:40;;;;;;;11.48;6.43;;;8.20;99.90;;;;;;4975628;28;20398;-85
2024/03/04 04:01:06;;;;;;;14.45;6.05;;;8.20;99.90;;;;;;4972357;28;20031;-85
2024/03/04 04:03:33;;;;;;;15.20;6.35;;;8.20;99.90;;;;;;4980525;28;20026;-85
2024/03/04 04:06:02;;;;;;;14.57;6.07;;;8.20;99.90;;;;;;4976431;28;20034;-86
2024/03/04 04:08:28;;;;;;;20.02;6.57;;;8.20;99.90;;;;;;4980454;28;20114;-85
2024/03/04 04:10:54;;;;;;;14.10;7.45;;;8.20;99.90;;;;;;4970322;28;20459;-84
2024/03/04 04:13:21;;;;;;;14.90;6.05;;;8.20;99.90;;;;;;4975535;28;20125;-85
2024/03/04 04:15:46;;;;;;;12.20;6.65;;;8.10;99.90;;;;;;4969425;28;20042;-85
2024/03/04 04:18:12;;;;;;;17.95;7.55;;;8.10;99.90;;;;;;4966882;28;20034;-85
2024/03/04 04:20:38;;;;;;;17.77;7.57;;;8.10;99.90;;;;;;4972909;28;20027;-85
2024/03/04 04:23:04;;;;;;;14.48;7.03;;;8.00;99.90;;;;;;4974817;28;20467;-85
2024/03/04 04:25:29;;;;;;;15.85;7.72;;;8.00;99.90;;;;;;4976594;28;20041;-85
2024/03/04 04:27:55;;;;;;;17.52;6.70;;;8.00;99.90;;;;;;4971274;28;20105;-85
2024/03/04 04:30:21;;;;;;;8.82;5.10;;;7.90;99.90;;;;;;4969848;28;20033;-86
2024/03/04 04:32:48;;;;;;;13.68;6.40;;;7.80;99.90;;;;;;4989409;28;20084;-85
2024/03/04 04:35:13;;;;;;;17.92;6.72;;;7.80;99.90;;;;;;4968652;28;20145;-85
2024/03/04 04:37:41;;;;;;;13.13;7.18;;;7.80;99.90;;;;;;4982829;28;20096;-85
2024/03/04 04:40:08;;;;;;;18.73;7.20;;;7.80;99.90;;;;;;4985255;28;20028;-85
2024/03/04 04:42:34;;;;;;;20.02;8.73;;;7.80;99.90;;;;;;4983927;28;20483;-85
2024/03/04 04:44:59;;;;;;;22.30;7.85;;;7.80;99.90;;;;;;4961661;28;20090;-85
2024/03/04 04:47:26;;;;;;;15.80;7.82;;;7.80;99.90;;;;;;4972604;28;20398;-85
2024/03/04 04:49:52;;;;;;;23.13;8.82;;;7.80;99.90;;;;;;4971450;28;20054;-85
2024/03/04 04:52:18;;;;;;;20.58;9.32;;;7.70;99.90;;;;;;4976287;28;20027;-85
2024/03/04 04:54:44;;;;;;;20.13;9.00;;;7.70;99.90;;;;;;4991226;28;20360;-85
2024/03/04 04:57:10;;;;;;;19.85;9.00;;;7.70;99.90;;;;;;4988346;28;20121;-84
2024/03/04 04:59:36;;;;;;;20.90;8.93;;;7.70;99.90;;;;;;4982976;28;20333;-84
2024/03/04 05:02:01;;;;;;;21.40;8.43;;;7.70;99.90;;;;;;4974447;28;20031;-85
2024/03/04 05:04:27;;;;;;;21.13;10.65;;;7.70;99.90;;;;;;4987352;28;20029;-84
2024/03/04 05:06:53;;;;;;;20.15;9.90;;;7.70;99.90;;;;;;4971620;28;20061;-84
2024/03/04 05:09:19;;;;;;;18.52;8.77;;;7.70;99.90;;;;;;4970514;28;20072;-85
2024/03/04 05:11:44;;;;;;;21.98;10.43;;;7.70;99.90;;;;;;4982753;28;20031;-84
2024/03/04 05:14:11;;;;;;;19.38;9.55;;;7.70;99.90;;;;;;4968984;28;20425;-84
2024/03/04 05:16:37;;;;;;;21.25;10.93;;;7.70;99.90;;;;;;4975478;28;20038;-84
2024/03/04 05:19:03;;;;;;;22.65;10.23;;;7.70;99.90;;;;;;4970340;28;20026;-84
2024/03/04 05:21:29;;;;;;;23.35;10.15;;;7.70;99.90;;;;;;4971238;28;20533;-84
2024/03/04 05:23:54;;;;;;;14.48;8.25;;;7.70;99.90;;;;;;4975003;28;20030;-83
2024/03/04 05:26:20;;;;;;;17.67;8.43;;;7.80;99.90;;;;;;4969693;28;20479;-84
2024/03/04 05:28:46;;;;;;;19.95;9.55;;;7.70;99.90;;;;;;4976166;28;20030;-84
2024/03/04 05:31:11;;;;;;;19.33;9.55;;;7.70;99.90;;;;;;4971115;28;20117;-83
2024/03/04 05:33:37;;;;;;;25.50;10.10;;;7.70;99.90;;;;;;4965352;28;20023;-84
2024/03/04 05:36:08;;;;;;;20.05;7.80;;;7.80;99.90;;;;;;4987032;28;20145;-84
2024/03/04 05:38:34;;;;;;;17.73;8.75;;;7.80;99.90;;;;;;4972924;28;20041;-84
2024/03/04 05:41:00;;;;;;;17.45;7.57;;;7.80;99.90;;;;;;4978238;28;20027;-85
2024/03/04 05:43:25;;;;;;;15.68;8.23;;;7.80;99.90;;;;;;4972948;28;20029;-85
2024/03/04 05:45:51;;;;;;;17.23;7.93;;;7.70;99.90;;;;;;4992722;28;20038;-85
2024/03/04 05:48:17;;;;;;;16.85;8.30;;;7.80;99.90;;;;;;4973356;28;20494;-85
2024/03/04 05:50:42;;;;;;;21.85;9.32;;;7.80;99.90;;;;;;4967129;28;20039;-85
2024/03/04 05:53:08;;;;;;;21.05;10.77;;;7.80;99.90;;;;;;4973187;28;20030;-85
2024/03/04 05:55:33;;;;;;;20.27;9.90;;;7.70;99.90;;;;;;4975310;28;20081;-85
2024/03/04 05:57:59;;;;;;;19.35;9.02;;;7.70;99.90;;;;;;4983388;28;20054;-85
2024/03/04 06:00:25;;;;;;;22.05;9.32;;;7.70;99.90;;;;;;4973644;28;20046;-86
2024/03/04 06:02:51;;;;;;;19.50;9.63;;;7.70;99.90;;;;;;4969653;28;20022;-86
2024/03/04 06:05:17;;;;;;;20.80;10.23;;;7.70;99.90;;;;;;4973339;28;20033;-85
2024/03/04 06:07:42;;;;;;;19.73;10.35;;;7.70;99.90;;;;;;4973651;28;20034;-85
2024/03/04 06:10:08;;;;;;;15.63;8.70;;;7.70;99.90;;;;;;4970946;28;20031;-86
2024/03/04 06:12:34;;;;;;;18.55;9.73;;;7.60;99.90;;;;;;4975449;28;20038;-86
2024/03/04 06:15:00;;;;;;;20.50;9.65;;;7.70;99.90;;;;;;4968975;28;20446;-84
2024/03/04 06:17:28;;;;;;;22.88;8.85;;;7.60;99.90;;;;;;4971979;28;20034;-84
2024/03/04 06:19:54;;;;;;;19.58;8.85;;;7.60;99.90;;;;;;4971377;28;20069;-85
2024/03/04 06:22:20;;;;;;;16.83;9.57;;;7.50;99.90;;;;;;4973888;28;20050;-85
2024/03/04 06:24:45;;;;;;;17.63;8.68;;;7.50;99.90;;;;;;4971504;28;20026;-85
2024/03/04 06:27:11;;;;;;;21.05;10.05;;;7.50;99.90;;;;;;4976394;28;20384;-86
2024/03/04 06:29:37;;;;;;;20.60;9.60;;;7.50;99.90;;;;;;4977039;28;20031;-85
2024/03/04 06:32:03;;;;;;;17.77;9.75;;;7.50;99.90;;;;;;4964258;28;20037;-84
2024/03/04 06:34:30;;;;;;;18.05;8.63;;;7.50;99.90;;;;;;4991850;28;20127;-84
2024/03/04 06:36:56;;;;;;;25.75;9.93;;;7.50;99.90;;;;;;4993733;28;20069;-84
2024/03/04 06:39:22;;;;;;;15.98;7.45;;;7.40;99.90;;;;;;4974516;28;20058;-84
2024/03/04 06:41:48;;;;;;;19.23;8.32;;;7.50;99.90;;;;;;4992712;28;20080;-84
2024/03/04 06:44:14;;;;;;;16.77;7.35;;;7.50;99.90;;;;;;4969603;28;20082;-85
2024/03/04 06:46:40;;;;;;;13.35;6.05;;;7.50;99.90;;;;;;4976482;28;20093;-84
2024/03/04 06:49:06;;;;;;;11.50;5.97;;;7.50;99.90;;;;;;4969824;28;20034;-85
2024/03/04 06:51:35;;;;;;;13.35;5.65;;;7.50;99.90;;;;;;4992896;28;20026;-85
2024/03/04 06:54:03;;;;;;;11.10;4.47;;;7.50;99.90;;;;;;4981886;28;20066;-85
2024/03/04 06:56:30;;;;;;;9.10;3.83;;;7.50;99.90;;;;;;4968968;28;20058;-84
2024/03/04 06:58:59;;;;;;;8.75;3.78;;;7.40;99.90;;;;;;4975499;28;20566;-85
2024/03/04 07:01:25;;;;;;;10.70;3.25;;;7.50;99.90;;;;;;4972549;28;20031;-85
2024/03/04 07:03:51;;;;;;;7.30;2.72;;;7.40;99.90;;;;;;4969643;28;20076;-84
2024/03/04 07:06:16;;;;;;;8.27;2.50;;;7.50;99.90;;;;;;4967496;28;20031;-85
2024/03/04 07:08:43;;;;;;;8.05;2.45;;;7.40;99.90;;;;;;4971662;28;20033;-86
2024/03/04 07:11:09;;;;;;;8.13;2.65;;;7.40;99.90;;;;;;4966727;28;20034;-85
2024/03/04 07:13:35;;;;;;;10.88;2.40;;;7.40;99.90;;;;;;4980504;28;20022;-86
2024/03/04 07:16:02;;;;;;;10.13;1.80;;;7.40;99.90;;;;;;4969886;28;20034;-85
2024/03/04 07:18:31;;;;;;;6.35;1.67;;;7.40;99.90;;;;;;4967793;28;20030;-86
2024/03/04 07:20:57;;;;;;;6.88;2.00;;;7.40;99.90;;;;;;4967121;28;20118;-85
2024/03/04 07:23:23;;;;;;;9.27;2.15;;;7.40;99.90;;;;;;4972868;28;20034;-85
2024/03/04 07:25:48;;;;;;;7.13;2.42;;;7.40;99.90;;;;;;4977132;28;20475;-85
2024/03/04 07:28:14;;;;;;;7.60;2.58;;;7.50;99.90;;;;;;4973744;28;20474;-85
2024/03/04 07:30:40;;;;;;;8.75;3.13;;;7.50;99.90;;;;;;4988801;28;20022;-85
2024/03/04 07:33:15;;;;;;;10.25;3.22;;;7.60;99.90;;;;;;4977751;28;20029;-86
2024/03/04 07:35:41;;;;;;;10.25;3.38;;;7.60;99.90;;;;;;4971391;28;20125;-85
2024/03/04 07:38:08;;;;;;;11.45;3.58;;;7.70;99.90;;;;;;4976581;28;20022;-85
2024/03/04 07:40:33;;;;;;;8.57;2.90;;;7.80;99.90;;;;;;4978062;28;20089;-85
2024/03/04 07:43:00;;;;;;;9.98;3.50;;;7.90;99.90;;;;;;4981272;28;20027;-86
2024/03/04 07:45:26;;;;;;;7.80;3.35;;;7.90;99.90;;;;;;4989286;28;20026;-85
2024/03/04 07:47:52;;;;;;;8.13;3.53;;;8.00;99.90;;;;;;4989753;28;20038;-85
2024/03/04 07:50:17;;;;;;;10.00;3.80;;;8.10;99.90;;;;;;4976820;28;20062;-85
2024/03/04 07:52:43;;;;;;;10.18;4.13;;;8.20;99.90;;;;;;4972198;28;20086;-85
2024/03/04 07:55:09;;;;;;;13.93;3.85;;;8.30;99.90;;;;;;4968959;28;20502;-85
2024/03/04 07:57:36;;;;;;;8.25;3.72;;;8.30;99.90;;;;;;4974872;28;20045;-85
2024/03/04 08:00:03;;;;;;;7.28;3.58;;;8.40;99.90;;;;;;4968850;28;20408;-85
2024/03/04 08:02:29;;;;;;;14.23;3.80;;;8.40;99.90;;;;;;4963880;28;20031;-85
2024/03/04 08:04:54;;;;;;;8.80;3.25;;;8.40;99.90;;;;;;4965609;28;20110;-85
2024/03/04 08:07:20;;;;;;;8.90;3.50;;;8.50;99.90;;;;;;4971797;28;20027;-89
2024/03/04 08:09:46;;;;;;;7.93;2.97;;;8.50;99.90;;;;;;4970832;28;20029;-86
2024/03/04 08:12:11;;;;;;;10.35;3.85;;;8.60;99.90;;;;;;4982995;28;20466;-89
2024/03/04 08:14:37;;;;;;;10.77;2.78;;;8.60;99.90;;;;;;4967075;28;20031;-85
2024/03/04 08:17:03;;;;;;;8.85;3.45;;;8.60;99.90;;;;;;4966917;28;20046;-85
2024/03/04 08:19:30;;;;;;;6.97;3.10;;;8.60;99.90;;;;;;4969328;28;20019;-85
2024/03/04 08:21:55;;;;;;;12.27;3.15;;;8.60;99.90;;;;;;4968813;28;20455;-84
2024/03/04 08:24:21;;;;;;;7.65;3.30;;;8.70;99.90;;;;;;4973537;28;20065;-84
2024/03/04 08:26:46;;;;;;;8.80;3.53;;;8.70;99.90;;;;;;4972536;28;20486;-84
2024/03/04 08:29:12;;;;;;;5.93;3.28;;;8.70;99.90;;;;;;4967275;28;20052;-83
2024/03/04 08:31:38;;;;;;;10.50;4.15;;;8.70;99.90;;;;;;4976643;28;20022;-84
2024/03/04 08:34:04;;;;;;;10.07;4.15;;;8.70;99.90;;;;;;4974635;28;20395;-83
2024/03/04 08:36:30;;;;;;;10.88;3.33;;;8.70;99.90;;;;;;4970373;28;20030;-84
2024/03/04 08:38:56;;;;;;;8.93;3.15;;;8.70;99.90;;;;;;4975718;28;20117;-85
2024/03/04 08:41:24;;;;;;;11.50;3.67;;;8.80;99.90;;;;;;4970551;28;20574;-84
2024/03/04 08:43:50;;;;;;;7.53;3.20;;;8.70;99.90;;;;;;4973491;28;20023;-84
2024/03/04 08:46:15;;;;;;;10.82;3.08;;;8.80;99.90;;;;;;4994666;28;20101;-84
2024/03/04 08:48:41;;;;;;;12.50;3.25;;;8.90;99.90;;;;;;4977839;28;20022;-84
2024/03/04 08:51:07;;;;;;;10.38;3.22;;;8.90;99.90;;;;;;4973469;28;20402;-84
2024/03/04 08:53:33;;;;;;;5.85;2.38;;;8.80;99.90;;;;;;4974066;28;20170;-84
2024/03/04 08:55:59;;;;;;;10.13;3.47;;;8.80;99.90;;;;;;4972780;28;20035;-84
2024/03/04 08:58:24;;;;;;;84.10;47.50;;;8.80;99.90;;;;;;4971919;28;20026;-84
2024/03/04 09:00:50;;;;;;;37.42;20.63;;;8.90;99.90;;;;;;4983993;28;20061;-84
2024/03/04 09:03:16;;;;;;;16.80;10.32;;;9.00;99.90;;;;;;4967799;28;20486;-84
2024/03/04 09:05:44;;;;;;;15.32;8.70;;;9.10;99.90;;;;;;4963781;28;20038;-85
2024/03/04 09:08:11;;;;;;;31.52;14.00;;;9.10;99.90;;;;;;4973461;28;20158;-85
2024/03/04 09:10:37;;;;;;;10.80;4.38;;;9.10;99.90;;;;;;4968398;28;20053;-85
2024/03/04 09:13:03;;;;;;;6.10;2.92;;;9.20;99.90;;;;;;4974142;28;20125;-85
2024/03/04 09:15:29;;;;;;;10.27;2.85;;;9.10;99.90;;;;;;4964863;28;20037;-84
2024/03/04 09:17:55;;;;;;;5.45;2.80;;;9.10;99.90;;;;;;4965301;28;20030;-84
2024/03/04 09:20:21;;;;;;;12.35;2.67;;;9.10;99.90;;;;;;4968708;28;20015;-85
2024/03/04 09:22:46;;;;;;;5.22;2.50;;;9.20;99.90;;;;;;4964455;28;20505;-84
2024/03/04 09:25:12;;;;;;;8.57;2.20;;;9.20;99.90;;;;;;4960258;28;20389;-85
2024/03/04 09:27:41;;;;;;;6.97;1.58;;;9.30;99.90;;;;;;4969690;28;20478;-85
2024/03/04 09:30:07;;;;;;;10.00;2.47;;;9.40;99.90;;;;;;4978874;28;20118;-85
2024/03/04 09:32:33;;;;;;;5.50;1.90;;;9.40;99.90;;;;;;4981246;28;20086;-83
2024/03/04 09:34:59;;;;;;;6.55;1.48;;;9.50;99.90;;;;;;4968714;28;20431;-85
2024/03/04 09:37:24;;;;;;;7.78;1.80;;;9.40;99.90;;;;;;4959997;28;20033;-85
2024/03/04 09:39:50;;;;;;;3.97;1.40;;;9.30;99.90;;;;;;4960586;28;20041;-84
2024/03/04 09:42:17;;;;;;;5.32;1.70;;;9.30;99.90;;;;;;4958587;28;20367;-85
2024/03/04 09:44:44;;;;;;;4.57;1.50;;;9.30;99.90;;;;;;4980579;28;20031;-85
2024/03/04 09:47:10;;;;;;;6.57;1.60;;;9.20;99.90;;;;;;4981784;28;20084;-85
2024/03/04 09:49:38;;;;;;;7.30;1.25;;;9.30;99.90;;;;;;4974857;28;20034;-85
2024/03/04 09:52:08;;;;;;;5.30;1.45;;;9.30;99.90;;;;;;4989993;28;20132;-85
2024/03/04 09:54:36;;;;;;;4.25;1.55;;;9.30;99.90;;;;;;4985807;28;20035;-84
2024/03/04 09:57:02;;;;;;;38.72;19.50;;;9.40;99.90;;;;;;4985205;28;20077;-85
2024/03/04 09:59:31;;;;;;;18.27;5.32;;;9.50;99.90;;;;;;4975100;28;20125;-85
2024/03/04 10:01:58;;;;;;;7.22;3.20;;;9.60;99.90;;;;;;4986083;28;20078;-84
2024/03/04 10:04:25;;;;;;;6.47;2.03;;;9.70;99.90;;;;;;4971667;28;20034;-84
2024/03/04 10:06:51;;;;;;;3.72;1.42;;;9.70;99.90;;;;;;4981009;28;20116;-85
2024/03/04 10:09:17;;;;;;;7.00;1.33;;;9.80;99.90;;;;;;4963229;28;20439;-85
2024/03/04 10:11:44;;;;;;;3.92;1.00;;;9.80;99.90;;;;;;4966927;28;20041;-85
2024/03/04 10:14:09;;;;;;;7.00;1.20;;;9.80;99.90;;;;;;4996196;28;20093;-85
2024/03/04 10:16:36;;;;;;;3.75;1.17;;;9.80;99.90;;;;;;4961487;28;20038;-84
2024/03/04 10:19:03;;;;;;;12.65;5.10;;;9.90;99.90;;;;;;4992548;28;20026;-84
2024/03/04 10:21:32;;;;;;;5.13;2.00;;;10.00;99.90;;;;;;4969825;28;20038;-84
2024/03/04 10:24:11;;;;;;;4.97;1.42;;;10.10;99.90;;;;;;4988406;28;20019;-84
2024/03/04 10:26:44;;;;;;;4.65;1.40;;;10.10;99.90;;;;;;4985707;28;20043;-84
2024/03/04 10:29:12;;;;;;;8.20;3.50;;;10.20;99.90;;;;;;4973406;28;20031;-85
2024/03/04 10:31:48;;;;;;;5.60;1.77;;;10.40;99.90;;;;;;4965843;28;20030;-84
2024/03/04 10:34:14;;;;;;;3.28;1.30;;;10.60;99.90;;;;;;4965811;28;20033;-86
2024/03/04 10:36:40;;;;;;;7.90;3.47;;;10.50;99.90;;;;;;4960759;28;20039;-84
2024/03/04 10:39:16;;;;;;;4.10;1.20;;;10.50;99.90;;;;;;4960615;28;20027;-84
2024/03/04 10:41:47;;;;;;;5.22;1.20;;;10.50;99.90;;;;;;4960775;28;20380;-85
2024/03/04 10:44:26;;;;;;;4.30;1.20;;;10.40;99.90;;;;;;4963424;28;20033;-84
2024/03/04 10:46:56;;;;;;;2.90;1.00;;;10.40;99.90;;;;;;4973480;28;20121;-84
2024/03/04 10:49:24;;;;;;;5.97;1.77;;;10.40;99.90;;;;;;4960262;28;20073;-85
2024/03/04 10:51:51;;;;;;;4.45;1.08;;;10.30;99.90;;;;;;4980637;28;20476;-85
2024/03/04 10:54:22;;;;;;;3.95;1.00;;;10.30;99.90;;;;;;4961873;28;20038;-84
2024/03/04 10:57:04;;;;;;;6.78;2.72;;;10.30;99.90;;;;;;4984805;28;20030;-85
2024/03/04 10:59:37;;;;;;;;;;;10.50;99.90;;;;;;4979219;28;20054;-85
2024/03/04 11:02:11;;;;;;;4.20;1.27;;;10.60;99.90;;;;;;4974674;28;20266;-85
2024/03/04 11:04:40;;;;;;;5.28;1.23;;;10.70;99.90;;;;;;4976256;28;20121;-85
2024/03/04 11:07:10;;;;;;;2.22;0.90;;;10.80;99.90;;;;;;4987440;28;20029;-85
2024/03/04 11:09:42;;;;;;;3.72;1.83;;;10.90;99.90;;;;;;4963277;28;20031;-85
2024/03/04 11:12:10;;;;;;;4.45;1.10;;;11.00;99.90;;;;;;4978199;28;20033;-84
2024/03/04 11:14:42;;;;;;;4.07;1.10;;;11.00;99.90;;;;;;4967303;28;20022;-85
2024/03/04 11:17:18;;;;;;;2.60;0.80;;;10.90;99.90;;;;;;4960487;28;20438;-85
2024/03/04 11:19:52;;;;;;;1.67;0.50;;;10.90;99.90;;;;;;4963944;28;20808;-84
2024/03/04 11:22:19;;;;;;;2.05;0.70;;;11.00;99.90;;;;;;4981049;28;20031;-85
2024/03/04 11:24:48;;;;;;;4.25;0.85;;;11.00;99.90;;;;;;4982343;28;20030;-85
2024/03/04 11:27:16;;;;;;;5.07;0.82;;;11.00;99.90;;;;;;4977113;28;20030;-85
2024/03/04 11:29:42;;;;;;;5.50;0.80;;;10.90;99.90;;;;;;4994086;28;20109;-85
2024/03/04 11:32:09;;;;;;;3.03;0.80;;;10.90;99.90;;;;;;4969990;28;20031;-85
2024/03/04 11:35:05;;;;;;;3.72;1.45;;;11.00;99.90;;;;;;4974523;28;20027;-85
2024/03/04 11:37:44;;;;;;;4.72;2.65;;;11.00;99.90;;;;;;4976082;28;20034;-85
2024/03/04 11:40:13;;;;;;;3.97;1.15;;;11.10;99.90;;;;;;4977956;28;20121;-85
2024/03/04 11:42:38;;;;;;;5.00;1.25;;;11.30;99.90;;;;;;4971871;28;20054;-83
2024/03/04 11:45:08;;;;;;;2.53;0.82;;;11.30;99.90;;;;;;4969181;28;20054;-83
2024/03/04 11:47:34;;;;;;;4.18;1.00;;;11.40;99.90;;;;;;4970111;28;20073;-83
2024/03/04 11:50:00;;;;;;;3.13;0.80;;;11.50;99.90;;;;;;4995018;28;20022;-83
2024/03/04 11:52:26;;;;;;;2.90;0.73;;;11.70;99.90;;;;;;4976650;28;20023;-84
2024/03/04 11:54:58;;;;;;;2.72;0.60;;;11.90;99.90;;;;;;4977036;28;20442;-82
2024/03/04 11:57:24;;;;;;;4.05;0.55;;;11.80;99.90;;;;;;4974150;28;20505;-82
2024/03/04 12:00:00;;;;;;;2.92;0.50;;;11.80;99.90;;;;;;4994312;28;20042;-83
2024/03/04 12:02:26;;;;;;;2.30;0.60;;;11.80;99.90;;;;;;4988229;28;20113;-83
2024/03/04 12:04:55;;;;;;;4.72;0.60;;;11.80;99.90;;;;;;4993412;28;20058;-83
2024/03/04 12:07:21;;;;;;;1.73;0.40;;;11.80;99.90;;;;;;4996071;28;20026;-83
2024/03/04 12:09:47;;;;;;;3.88;0.50;;;11.80;99.90;;;;;;4984358;28;20031;-83
2024/03/04 12:12:16;;;;;;;1.95;0.57;;;11.80;99.90;;;;;;4985599;28;20502;-84
2024/03/04 12:14:45;;;;;;;2.13;0.50;;;11.70;99.90;;;;;;4977661;28;20031;-84
2024/03/04 12:17:16;;;;;;;3.00;0.40;;;11.70;99.90;;;;;;4990403;28;20525;-84
2024/03/04 12:20:11;;;;;;;2.75;0.40;;;11.60;99.90;;;;;;4977625;28;20027;-84
2024/03/04 12:22:38;;;;;;;2.22;0.40;;;11.50;99.90;;;;;;4960045;28;20035;-84
2024/03/04 12:25:09;;;;;;;1.05;0.30;;;11.50;99.90;;;;;;4976681;28;20030;-84
2024/03/04 12:27:35;;;;;;;1.20;0.43;;;11.50;99.90;;;;;;4976715;28;20034;-84
2024/03/04 12:30:17;;;;;;;2.67;0.40;;;11.60;99.90;;;;;;4976379;28;20220;-84
2024/03/04 12:32:45;;;;;;;1.87;0.40;;;11.70;99.90;;;;;;4965789;28;20038;-83
2024/03/04 12:35:25;;;;;;;1.98;0.38;;;11.90;99.90;;;;;;4973919;28;20298;-83
2024/03/04 12:37:59;;;;;;;2.10;0.40;;;11.90;99.90;;;;;;4974699;28;20088;-84
2024/03/04 12:40:26;;;;;;;2.78;0.40;;;11.80;99.90;;;;;;4967352;28;20027;-84
2024/03/04 12:42:53;;;;;;;1.90;0.30;;;11.70;99.90;;;;;;4969420;28;20100;-82
2024/03/04 12:45:19;;;;;;;2.95;0.55;;;11.60;99.90;;;;;;4978453;28;20053;-84
2024/03/04 12:47:45;;;;;;;1.70;0.50;;;11.70;99.90;;;;;;4960788;28;20387;-83